sensor_id;sensor_type;location;lat;lon;timestamp;pressure;altitude;pressure_sealevel;temperature;humidity
6869;BME280;3473;42.604;23.496;2022-08-19T00:01:23;19948.34;;;-140.19;50.17
6869;BME280;3473;42.604;23.496;2022-08-19T00:02:55;19989.09;;;-140.19;50.20
6869;BME280;3473;42.604;23.496;2022-08-19T00:04:29;19960.00;;;-140.19;50.28
6869;BME280;3473;42.604;23.496;2022-08-19T00:06:01;19950.28;;;-140.19;50.26
6869;BME280;3473;42.604;23.496;2022-08-19T00:07:33;19969.69;;;-140.19;50.53
6869;BME280;3473;42.604;23.496;2022-08-19T00:09:07;19971.63;;;-140.19;50.45
6869;BME280;3473;42.604;23.496;2022-08-19T00:10:39;20010.47;;;-140.19;50.43
6869;BME280;3473;42.604;23.496;2022-08-19T00:12:10;19921.19;;;-140.19;50.70
6869;BME280;3473;42.604;23.496;2022-08-19T00:13:42;19979.41;;;-140.19;50.71
6869;BME280;3473;42.604;23.496;2022-08-19T00:15:18;19932.81;;;-140.19;51.03
6869;BME280;3473;42.604;23.496;2022-08-19T00:16:49;19921.19;;;-140.19;50.97
6869;BME280;3473;42.604;23.496;2022-08-19T00:18:24;19952.22;;;-140.19;50.93
6869;BME280;3473;42.604;23.496;2022-08-19T00:19:56;19954.16;;;-140.19;51.60
6869;BME280;3473;42.604;23.496;2022-08-19T00:21:28;19927.00;;;-140.19;51.54
6869;BME280;3473;42.604;23.496;2022-08-19T00:23:00;19927.00;;;-140.19;51.57
6869;BME280;3473;42.604;23.496;2022-08-19T00:24:34;19915.34;;;-140.19;51.92
6869;BME280;3473;42.604;23.496;2022-08-19T00:26:07;20303.56;;;-140.19;51.92
6869;BME280;3473;42.604;23.496;2022-08-19T00:27:39;19936.69;;;-140.19;51.50
6869;BME280;3473;42.604;23.496;2022-08-19T00:29:12;19928.94;;;-140.19;51.77
6869;BME280;3473;42.604;23.496;2022-08-19T00:30:44;19897.88;;;-140.19;51.97
6869;BME280;3473;42.604;23.496;2022-08-19T00:32:16;20091.97;;;-140.19;52.67
6869;BME280;3473;42.604;23.496;2022-08-19T00:33:47;19938.66;;;-140.19;52.48
6869;BME280;3473;42.604;23.496;2022-08-19T00:35:20;19862.94;;;-140.19;52.37
6869;BME280;3473;42.604;23.496;2022-08-19T00:36:53;19866.84;;;-140.19;52.56
6869;BME280;3473;42.604;23.496;2022-08-19T00:38:25;19921.19;;;-140.19;52.76
6869;BME280;3473;42.604;23.496;2022-08-19T00:39:58;19905.66;;;-140.19;52.90
6869;BME280;3473;42.604;23.496;2022-08-19T00:41:30;19905.66;;;-140.19;53.40
6869;BME280;3473;42.604;23.496;2022-08-19T00:43:07;19897.88;;;-140.19;54.05
6869;BME280;3473;42.604;23.496;2022-08-19T00:44:39;19928.94;;;-140.19;54.28
6869;BME280;3473;42.604;23.496;2022-08-19T00:46:11;19861.00;;;-140.19;54.85
6869;BME280;3473;42.604;23.496;2022-08-19T00:47:44;20035.69;;;-140.19;54.71
6869;BME280;3473;42.604;23.496;2022-08-19T00:49:19;19853.25;;;-140.19;55.02
6869;BME280;3473;42.604;23.496;2022-08-19T00:50:53;19851.31;;;-140.19;55.21
6869;BME280;3473;42.604;23.496;2022-08-19T00:52:29;19857.13;;;-140.19;54.97
6869;BME280;3473;42.604;23.496;2022-08-19T00:54:03;19868.78;;;-140.19;55.30
6869;BME280;3473;42.604;23.496;2022-08-19T00:55:35;19894.00;;;-140.19;55.40
6869;BME280;3473;42.604;23.496;2022-08-19T00:57:10;19905.66;;;-140.19;55.66
6869;BME280;3473;42.604;23.496;2022-08-19T00:58:43;19880.41;;;-140.19;55.97
6869;BME280;3473;42.604;23.496;2022-08-19T01:00:17;19857.13;;;-140.19;56.09
6869;BME280;3473;42.604;23.496;2022-08-19T01:01:49;19888.19;;;-140.19;56.21
6869;BME280;3473;42.604;23.496;2022-08-19T01:03:22;19835.78;;;-140.19;56.54
6869;BME280;3473;42.604;23.496;2022-08-19T01:04:54;19012.94;;;-140.19;56.86
6869;BME280;3473;42.604;23.496;2022-08-19T01:06:26;19808.59;;;-140.19;57.03
6869;BME280;3473;42.604;23.496;2022-08-19T01:08:02;19849.38;;;-140.19;57.37
6869;BME280;3473;42.604;23.496;2022-08-19T01:09:34;19839.66;;;-140.19;57.67
6869;BME280;3473;42.604;23.496;2022-08-19T01:11:05;19744.56;;;-140.19;58.19
6869;BME280;3473;42.604;23.496;2022-08-19T01:12:39;19928.94;;;-140.19;58.22
6869;BME280;3473;42.604;23.496;2022-08-19T01:14:11;19783.38;;;-140.19;57.80
6869;BME280;3473;42.604;23.496;2022-08-19T01:15:46;19795.03;;;-140.19;57.17
6869;BME280;3473;42.604;23.496;2022-08-19T01:17:20;19802.78;;;-140.19;57.80
6869;BME280;3473;42.604;23.496;2022-08-19T01:18:52;19800.84;;;-140.19;58.39
6869;BME280;3473;42.604;23.496;2022-08-19T01:20:23;19773.66;;;-140.19;58.33
6869;BME280;3473;42.604;23.496;2022-08-19T01:22:00;19779.50;;;-140.19;58.70
6869;BME280;3473;42.604;23.496;2022-08-19T01:23:35;19907.59;;;-140.19;59.29
6869;BME280;3473;42.604;23.496;2022-08-19T01:25:19;19738.72;;;-140.19;59.14
6869;BME280;3473;42.604;23.496;2022-08-19T01:26:52;19736.78;;;-140.19;59.54
6869;BME280;3473;42.604;23.496;2022-08-19T01:28:26;19760.09;;;-140.19;58.35
6869;BME280;3473;42.604;23.496;2022-08-19T01:29:59;19779.50;;;-140.19;58.64
6869;BME280;3473;42.604;23.496;2022-08-19T01:31:31;19754.25;;;-140.19;58.69
6869;BME280;3473;42.604;23.496;2022-08-19T01:33:03;19740.69;;;-140.19;58.61
6869;BME280;3473;42.604;23.496;2022-08-19T01:34:35;19767.84;;;-140.19;58.50
6869;BME280;3473;42.604;23.496;2022-08-19T01:36:11;19787.25;;;-140.19;57.69
6869;BME280;3473;42.604;23.496;2022-08-19T01:37:48;19750.38;;;-140.19;58.78
6869;BME280;3473;42.604;23.496;2022-08-19T01:39:24;19548.53;;;-140.19;58.43
6869;BME280;3473;42.604;23.496;2022-08-19T01:40:56;19765.91;;;-140.19;57.88
6869;BME280;3473;42.604;23.496;2022-08-19T01:42:28;19715.44;;;-140.19;59.05
6869;BME280;3473;42.604;23.496;2022-08-19T01:44:02;19727.09;;;-140.19;59.62
6869;BME280;3473;42.604;23.496;2022-08-19T01:45:35;19723.22;;;-140.19;59.77
6869;BME280;3473;42.604;23.496;2022-08-19T01:47:08;19680.50;;;-140.19;59.88
6869;BME280;3473;42.604;23.496;2022-08-19T01:48:41;19688.28;;;-140.19;60.32
6869;BME280;3473;42.604;23.496;2022-08-19T01:50:13;19707.69;;;-140.19;60.63
6869;BME280;3473;42.604;23.496;2022-08-19T01:51:45;19624.22;;;-140.19;60.84
6869;BME280;3473;42.604;23.496;2022-08-19T01:53:17;19657.22;;;-140.19;60.91
6869;BME280;3473;42.604;23.496;2022-08-19T01:54:51;19653.34;;;-140.19;60.65
6869;BME280;3473;42.604;23.496;2022-08-19T01:56:23;19641.69;;;-140.19;60.74
6869;BME280;3473;42.604;23.496;2022-08-19T01:57:58;19641.69;;;-140.19;60.75
6869;BME280;3473;42.604;23.496;2022-08-19T01:59:31;19649.47;;;-140.19;60.63
6869;BME280;3473;42.604;23.496;2022-08-19T02:01:04;19760.09;;;-140.19;60.75
6869;BME280;3473;42.604;23.496;2022-08-19T02:02:36;19618.41;;;-140.19;60.62
6869;BME280;3473;42.604;23.496;2022-08-19T02:04:08;19610.63;;;-140.19;59.95
6869;BME280;3473;42.604;23.496;2022-08-19T02:05:39;19618.41;;;-140.19;60.23
6869;BME280;3473;42.604;23.496;2022-08-19T02:07:11;19583.47;;;-140.19;60.79
6869;BME280;3473;42.604;23.496;2022-08-19T02:08:43;19595.13;;;-140.19;61.09
6869;BME280;3473;42.604;23.496;2022-08-19T02:10:20;19587.34;;;-140.19;61.37
6869;BME280;3473;42.604;23.496;2022-08-19T02:11:51;19583.47;;;-140.19;62.16
6869;BME280;3473;42.604;23.496;2022-08-19T02:13:26;19525.25;;;-140.19;62.59
6869;BME280;3473;42.604;23.496;2022-08-19T02:14:59;19529.13;;;-140.19;62.37
6869;BME280;3473;42.604;23.496;2022-08-19T02:16:30;18836.38;;;-140.19;62.48
6869;BME280;3473;42.604;23.496;2022-08-19T02:18:02;19529.13;;;-140.19;62.16
6869;BME280;3473;42.604;23.496;2022-08-19T02:19:34;19534.94;;;-140.19;62.23
6869;BME280;3473;42.604;23.496;2022-08-19T02:21:05;19513.59;;;-140.19;62.60
6869;BME280;3473;42.604;23.496;2022-08-19T02:22:37;19523.31;;;-140.19;62.37
6869;BME280;3473;42.604;23.496;2022-08-19T02:24:09;19470.91;;;-140.19;62.20
6869;BME280;3473;42.604;23.496;2022-08-19T02:25:43;19478.66;;;-140.19;62.34
6869;BME280;3473;42.604;23.496;2022-08-19T02:27:15;19461.22;;;-140.19;61.81
6869;BME280;3473;42.604;23.496;2022-08-19T02:28:47;19503.91;;;-140.19;61.55
6869;BME280;3473;42.604;23.496;2022-08-19T02:30:19;19503.91;;;-140.19;61.28
6869;BME280;3473;42.604;23.496;2022-08-19T02:31:51;19455.38;;;-140.19;61.14
6869;BME280;3473;42.604;23.496;2022-08-19T02:33:22;19472.84;;;-140.19;61.75
6869;BME280;3473;42.604;23.496;2022-08-19T02:34:54;19991.06;;;-140.19;61.73
6869;BME280;3473;42.604;23.496;2022-08-19T02:36:25;19505.84;;;-140.19;61.59
6869;BME280;3473;42.604;23.496;2022-08-19T02:37:58;19445.69;;;-140.19;61.04
6869;BME280;3473;42.604;23.496;2022-08-19T02:39:47;19484.50;;;-140.19;61.36
6869;BME280;3473;42.604;23.496;2022-08-19T02:41:20;19494.19;;;-140.19;61.18
6869;BME280;3473;42.604;23.496;2022-08-19T02:42:52;19447.63;;;-140.19;61.44
6869;BME280;3473;42.604;23.496;2022-08-19T02:44:23;19494.19;;;-140.19;61.89
6869;BME280;3473;42.604;23.496;2022-08-19T02:45:55;19459.25;;;-140.19;61.56
6869;BME280;3473;42.604;23.496;2022-08-19T02:47:26;19482.56;;;-140.19;61.75
6869;BME280;3473;42.604;23.496;2022-08-19T02:49:00;19457.31;;;-140.19;61.78
6869;BME280;3473;42.604;23.496;2022-08-19T02:50:32;19624.22;;;-140.19;61.89
6869;BME280;3473;42.604;23.496;2022-08-19T02:52:03;19476.72;;;-140.19;62.29
6869;BME280;3473;42.604;23.496;2022-08-19T02:53:34;19366.13;;;-140.19;62.68
6869;BME280;3473;42.604;23.496;2022-08-19T02:55:08;19408.81;;;-140.19;63.36
6869;BME280;3473;42.604;23.496;2022-08-19T02:56:41;19389.41;;;-140.19;63.93
6869;BME280;3473;42.604;23.496;2022-08-19T02:58:15;19370.00;;;-140.19;64.32
6869;BME280;3473;42.604;23.496;2022-08-19T02:59:47;19618.41;;;-140.19;63.98
6869;BME280;3473;42.604;23.496;2022-08-19T03:01:22;19288.50;;;-140.19;64.47
6869;BME280;3473;42.604;23.496;2022-08-19T03:02:54;19296.25;;;-140.19;64.48
6869;BME280;3473;42.604;23.496;2022-08-19T03:04:26;19269.09;;;-140.19;64.46
6869;BME280;3473;42.604;23.496;2022-08-19T03:06:07;19257.44;;;-140.19;64.72
6869;BME280;3473;42.604;23.496;2022-08-19T03:07:38;19203.09;;;-140.19;65.52
6869;BME280;3473;42.604;23.496;2022-08-19T03:09:10;19216.69;;;-140.19;65.80
6869;BME280;3473;42.604;23.496;2022-08-19T03:10:44;19166.25;;;-140.19;65.69
6869;BME280;3473;42.604;23.496;2022-08-19T03:12:16;19253.56;;;-140.19;65.58
6869;BME280;3473;42.604;23.496;2022-08-19T03:13:49;19282.66;;;-140.19;65.95
6869;BME280;3473;42.604;23.496;2022-08-19T03:15:21;19197.28;;;-140.19;65.32
6869;BME280;3473;42.604;23.496;2022-08-19T03:16:52;19276.84;;;-140.19;65.47
6869;BME280;3473;42.604;23.496;2022-08-19T03:18:24;19344.78;;;-140.19;65.50
6869;BME280;3473;42.604;23.496;2022-08-19T03:19:55;19137.13;;;-140.19;65.05
6869;BME280;3473;42.604;23.496;2022-08-19T03:21:29;19175.94;;;-140.19;65.16
6869;BME280;3473;42.604;23.496;2022-08-19T03:23:01;19106.09;;;-140.19;65.37
6869;BME280;3473;42.604;23.496;2022-08-19T03:24:33;19131.31;;;-140.19;65.16
6869;BME280;3473;42.604;23.496;2022-08-19T03:26:05;19090.56;;;-140.19;65.16
6869;BME280;3473;42.604;23.496;2022-08-19T03:27:37;19100.25;;;-140.19;65.02
6869;BME280;3473;42.604;23.496;2022-08-19T03:29:09;19061.44;;;-140.19;64.78
6869;BME280;3473;42.604;23.496;2022-08-19T03:30:43;19088.63;;;-140.19;65.31
6869;BME280;3473;42.604;23.496;2022-08-19T03:32:14;19047.88;;;-140.19;65.41
6869;BME280;3473;42.604;23.496;2022-08-19T03:33:46;19059.50;;;-140.19;64.94
6869;BME280;3473;42.604;23.496;2022-08-19T03:35:17;19016.81;;;-140.19;65.18
6869;BME280;3473;42.604;23.496;2022-08-19T03:36:50;19047.88;;;-140.19;65.52
6869;BME280;3473;42.604;23.496;2022-08-19T03:38:22;19057.56;;;-140.19;65.42
6869;BME280;3473;42.604;23.496;2022-08-19T03:39:54;19040.09;;;-140.19;65.30
6869;BME280;3473;42.604;23.496;2022-08-19T03:41:28;19049.81;;;-140.19;64.69
6869;BME280;3473;42.604;23.496;2022-08-19T03:43:00;18999.34;;;-140.19;64.89
6869;BME280;3473;42.604;23.496;2022-08-19T03:44:32;19007.13;;;-140.19;65.11
6869;BME280;3473;42.604;23.496;2022-08-19T03:46:09;18989.66;;;-140.19;64.73
6869;BME280;3473;42.604;23.496;2022-08-19T03:47:41;18970.25;;;-140.19;63.74
6869;BME280;3473;42.604;23.496;2022-08-19T03:49:13;19076.97;;;-140.19;64.35
6869;BME280;3473;42.604;23.496;2022-08-19T03:50:44;19034.28;;;-140.19;64.39
6869;BME280;3473;42.604;23.496;2022-08-19T03:52:20;19063.38;;;-140.19;64.64
6869;BME280;3473;42.604;23.496;2022-08-19T03:53:57;19156.53;;;-140.19;65.05
6869;BME280;3473;42.604;23.496;2022-08-19T03:55:28;19001.28;;;-140.19;64.59
6869;BME280;3473;42.604;23.496;2022-08-19T03:57:00;19011.00;;;-140.19;64.24
6869;BME280;3473;42.604;23.496;2022-08-19T03:58:34;19014.88;;;-140.19;63.78
6869;BME280;3473;42.604;23.496;2022-08-19T04:00:09;19108.03;;;-140.19;63.58
6869;BME280;3473;42.604;23.496;2022-08-19T04:01:41;19044.00;;;-140.19;63.47
6869;BME280;3473;42.604;23.496;2022-08-19T04:03:12;19032.34;;;-140.19;64.29
6869;BME280;3473;42.604;23.496;2022-08-19T04:04:44;19020.69;;;-140.19;63.50
6869;BME280;3473;42.604;23.496;2022-08-19T04:06:18;18968.31;;;-140.19;63.05
6869;BME280;3473;42.604;23.496;2022-08-19T04:07:49;19059.50;;;-140.19;63.64
6869;BME280;3473;42.604;23.496;2022-08-19T04:09:20;19018.75;;;-140.19;62.74
6869;BME280;3473;42.604;23.496;2022-08-19T04:10:52;19065.34;;;-140.19;62.39
6869;BME280;3473;42.604;23.496;2022-08-19T04:12:24;19057.56;;;-140.19;62.67
6869;BME280;3473;42.604;23.496;2022-08-19T04:13:57;19106.09;;;-140.19;62.68
6869;BME280;3473;42.604;23.496;2022-08-19T04:15:28;19102.19;;;-140.19;62.21
6869;BME280;3473;42.604;23.496;2022-08-19T04:17:03;19108.03;;;-140.19;61.81
6869;BME280;3473;42.604;23.496;2022-08-19T04:18:37;19036.22;;;-140.19;61.76
6869;BME280;3473;42.604;23.496;2022-08-19T04:20:09;19057.56;;;-140.19;61.60
6869;BME280;3473;42.604;23.496;2022-08-19T04:21:43;19100.25;;;-140.19;61.29
6869;BME280;3473;42.604;23.496;2022-08-19T04:23:14;19117.72;;;-140.19;61.03
6869;BME280;3473;42.604;23.496;2022-08-19T04:24:46;19082.78;;;-140.19;60.57
6869;BME280;3473;42.604;23.496;2022-08-19T04:26:21;19241.91;;;-140.19;60.12
6869;BME280;3473;42.604;23.496;2022-08-19T04:27:53;19117.72;;;-140.19;59.61
6869;BME280;3473;42.604;23.496;2022-08-19T04:29:26;19102.19;;;-140.19;59.19
6869;BME280;3473;42.604;23.496;2022-08-19T04:30:58;19080.84;;;-140.19;59.16
6869;BME280;3473;42.604;23.496;2022-08-19T04:32:29;19125.50;;;-140.19;58.48
6869;BME280;3473;42.604;23.496;2022-08-19T04:34:04;19146.84;;;-140.19;58.19
6869;BME280;3473;42.604;23.496;2022-08-19T04:35:38;19127.44;;;-140.19;58.20
6869;BME280;3473;42.604;23.496;2022-08-19T04:37:10;19158.47;;;-140.19;57.78
6869;BME280;3473;42.604;23.496;2022-08-19T04:38:42;19139.06;;;-140.19;57.84
6869;BME280;3473;42.604;23.496;2022-08-19T04:40:13;19172.06;;;-140.19;57.27
6869;BME280;3473;42.604;23.496;2022-08-19T04:42:03;19127.44;;;-140.19;57.12
6869;BME280;3473;42.604;23.496;2022-08-19T04:43:52;19139.06;;;-140.19;56.99
6869;BME280;3473;42.604;23.496;2022-08-19T04:45:25;19201.16;;;-140.19;57.16
6869;BME280;3473;42.604;23.496;2022-08-19T04:46:57;19201.16;;;-140.19;56.92
6869;BME280;3473;42.604;23.496;2022-08-19T04:48:29;19150.72;;;-140.19;57.80
6869;BME280;3473;42.604;23.496;2022-08-19T04:50:02;19197.28;;;-140.19;57.33
6869;BME280;3473;42.604;23.496;2022-08-19T04:51:35;19168.19;;;-140.19;57.15
6869;BME280;3473;42.604;23.496;2022-08-19T04:53:07;19214.75;;;-140.19;55.42
6869;BME280;3473;42.604;23.496;2022-08-19T04:54:39;19183.69;;;-140.19;56.35
6869;BME280;3473;42.604;23.496;2022-08-19T04:56:14;19187.59;;;-140.19;55.16
6869;BME280;3473;42.604;23.496;2022-08-19T04:57:47;19203.09;;;-140.19;55.21
6869;BME280;3473;42.604;23.496;2022-08-19T04:59:20;19137.13;;;-140.19;56.03
6869;BME280;3473;42.604;23.496;2022-08-19T05:00:54;19141.00;;;-140.19;55.62
6869;BME280;3473;42.604;23.496;2022-08-19T05:02:26;19168.19;;;-140.19;54.96
6869;BME280;3473;42.604;23.496;2022-08-19T05:03:58;19222.50;;;-140.19;54.54
6869;BME280;3473;42.604;23.496;2022-08-19T05:05:31;19175.94;;;-140.19;55.76
6869;BME280;3473;42.604;23.496;2022-08-19T05:07:02;19463.16;;;-140.19;55.50
6869;BME280;3473;42.604;23.496;2022-08-19T05:08:36;19115.78;;;-140.19;56.56
6869;BME280;3473;42.604;23.496;2022-08-19T05:10:13;19166.25;;;-140.19;56.18
6869;BME280;3473;42.604;23.496;2022-08-19T05:11:45;19179.81;;;-140.19;56.33
6869;BME280;3473;42.604;23.496;2022-08-19T05:13:19;19238.03;;;-140.19;55.74
6869;BME280;3473;42.604;23.496;2022-08-19T05:14:50;19152.66;;;-140.19;55.36
6869;BME280;3473;42.604;23.496;2022-08-19T05:16:24;19141.00;;;-140.19;55.09
6869;BME280;3473;42.604;23.496;2022-08-19T05:17:57;19251.63;;;-140.19;53.23
6869;BME280;3473;42.604;23.496;2022-08-19T05:19:46;19199.22;;;-140.19;53.80
6869;BME280;3473;42.604;23.496;2022-08-19T05:21:36;19238.03;;;-140.19;53.65
6869;BME280;3473;42.604;23.496;2022-08-19T05:23:25;19243.84;;;-140.19;53.53
6869;BME280;3473;42.604;23.496;2022-08-19T05:24:57;19265.19;;;-140.19;53.58
6869;BME280;3473;42.604;23.496;2022-08-19T05:26:30;19272.97;;;-140.19;52.92
6869;BME280;3473;42.604;23.496;2022-08-19T05:28:01;19241.91;;;-140.19;52.55
6869;BME280;3473;42.604;23.496;2022-08-19T05:29:34;19319.53;;;-140.19;51.89
6869;BME280;3473;42.604;23.496;2022-08-19T05:31:06;19298.19;;;-140.19;53.22
6869;BME280;3473;42.604;23.496;2022-08-19T05:32:38;19255.50;;;-140.19;52.87
6869;BME280;3473;42.604;23.496;2022-08-19T05:34:10;19257.44;;;-140.19;52.85
6869;BME280;3473;42.604;23.496;2022-08-19T05:35:41;19274.91;;;-140.19;52.65
6869;BME280;3473;42.604;23.496;2022-08-19T05:37:14;19263.25;;;-140.19;52.43
6869;BME280;3473;42.604;23.496;2022-08-19T05:38:47;19282.66;;;-140.19;51.80
6869;BME280;3473;42.604;23.496;2022-08-19T05:40:20;19257.44;;;-140.19;51.62
6869;BME280;3473;42.604;23.496;2022-08-19T05:41:56;19224.44;;;-140.19;50.45
6869;BME280;3473;42.604;23.496;2022-08-19T05:43:27;19333.13;;;-140.19;50.36
6869;BME280;3473;42.604;23.496;2022-08-19T05:44:59;19333.13;;;-140.19;50.30
6869;BME280;3473;42.604;23.496;2022-08-19T05:46:31;19319.53;;;-140.19;49.89
6869;BME280;3473;42.604;23.496;2022-08-19T05:48:03;19371.94;;;-140.19;48.79
6869;BME280;3473;42.604;23.496;2022-08-19T05:49:36;19337.00;;;-140.19;49.16
6869;BME280;3473;42.604;23.496;2022-08-19T05:51:08;19356.41;;;-140.19;48.74
6869;BME280;3473;42.604;23.496;2022-08-19T05:52:40;19418.50;;;-140.19;48.13
6869;BME280;3473;42.604;23.496;2022-08-19T05:54:12;19375.81;;;-140.19;48.51
6869;BME280;3473;42.604;23.496;2022-08-19T05:55:45;19447.63;;;-140.19;48.14
6869;BME280;3473;42.604;23.496;2022-08-19T05:57:17;19338.94;;;-140.19;48.98
6869;BME280;3473;42.604;23.496;2022-08-19T05:58:49;19313.72;;;-140.19;49.70
6869;BME280;3473;42.604;23.496;2022-08-19T06:00:20;19329.25;;;-140.19;49.50
6869;BME280;3473;42.604;23.496;2022-08-19T06:01:52;19354.47;;;-140.19;48.72
6869;BME280;3473;42.604;23.496;2022-08-19T06:03:27;19352.53;;;-140.19;48.85
6869;BME280;3473;42.604;23.496;2022-08-19T06:04:59;19352.53;;;-140.19;48.95
6869;BME280;3473;42.604;23.496;2022-08-19T06:06:32;19432.09;;;-140.19;48.17
6869;BME280;3473;42.604;23.496;2022-08-19T06:08:04;19356.41;;;-140.19;48.00
6869;BME280;3473;42.604;23.496;2022-08-19T06:09:37;19321.47;;;-140.19;48.50
6869;BME280;3473;42.604;23.496;2022-08-19T06:11:15;19327.31;;;-140.19;48.96
6869;BME280;3473;42.604;23.496;2022-08-19T06:12:48;19397.16;;;-140.19;49.09
6869;BME280;3473;42.604;23.496;2022-08-19T06:14:21;19389.41;;;-140.19;48.28
6869;BME280;3473;42.604;23.496;2022-08-19T06:15:53;19375.81;;;-140.19;47.67
6869;BME280;3473;42.604;23.496;2022-08-19T06:17:24;19412.69;;;-140.19;46.53
6869;BME280;3473;42.604;23.496;2022-08-19T06:19:02;19416.56;;;-140.19;47.07
6869;BME280;3473;42.604;23.496;2022-08-19T06:20:33;19428.22;;;-140.19;46.45
6869;BME280;3473;42.604;23.496;2022-08-19T06:22:05;19418.50;;;-140.19;46.49
6869;BME280;3473;42.604;23.496;2022-08-19T06:23:37;19358.34;;;-140.19;45.78
6869;BME280;3473;42.604;23.496;2022-08-19T06:25:12;19385.53;;;-140.19;45.15
6869;BME280;3473;42.604;23.496;2022-08-19T06:26:46;19410.75;;;-140.19;45.05
6869;BME280;3473;42.604;23.496;2022-08-19T06:28:18;19488.38;;;-140.19;43.10
6869;BME280;3473;42.604;23.496;2022-08-19T06:29:51;19474.78;;;-140.19;41.81
6869;BME280;3473;42.604;23.496;2022-08-19T06:31:25;19494.19;;;-140.19;41.85
6869;BME280;3473;42.604;23.496;2022-08-19T06:32:57;19505.84;;;-140.19;41.78
6869;BME280;3473;42.604;23.496;2022-08-19T06:34:32;19663.03;;;-140.19;42.09
6869;BME280;3473;42.604;23.496;2022-08-19T06:36:04;19503.91;;;-140.19;42.16
6869;BME280;3473;42.604;23.496;2022-08-19T06:37:36;19523.31;;;-140.19;40.89
6869;BME280;3473;42.604;23.496;2022-08-19T06:39:09;19540.78;;;-140.19;41.38
6869;BME280;3473;42.604;23.496;2022-08-19T06:40:41;19552.41;;;-140.19;41.13
6869;BME280;3473;42.604;23.496;2022-08-19T06:42:14;19556.31;;;-140.19;40.42
6869;BME280;3473;42.604;23.496;2022-08-19T06:43:48;19513.59;;;-140.19;40.08
6869;BME280;3473;42.604;23.496;2022-08-19T06:45:19;19882.34;;;-140.19;40.20
6869;BME280;3473;42.604;23.496;2022-08-19T06:46:51;19536.91;;;-140.19;40.23
6869;BME280;3473;42.604;23.496;2022-08-19T06:48:23;19602.88;;;-140.19;39.42
6869;BME280;3473;42.604;23.496;2022-08-19T06:49:56;19608.69;;;-140.19;38.84
6869;BME280;3473;42.604;23.496;2022-08-19T06:51:30;19585.41;;;-140.19;39.67
6869;BME280;3473;42.604;23.496;2022-08-19T06:53:04;19589.28;;;-140.19;39.37
6869;BME280;3473;42.604;23.496;2022-08-19T06:54:36;19630.03;;;-140.19;38.53
6869;BME280;3473;42.604;23.496;2022-08-19T06:56:07;19597.06;;;-140.19;39.22
6869;BME280;3473;42.604;23.496;2022-08-19T06:57:39;19569.88;;;-140.19;39.28
6869;BME280;3473;42.604;23.496;2022-08-19T06:59:15;19616.47;;;-140.19;38.62
6869;BME280;3473;42.604;23.496;2022-08-19T07:00:48;19581.53;;;-140.19;38.56
6869;BME280;3473;42.604;23.496;2022-08-19T07:02:20;19672.75;;;-140.19;38.11
6869;BME280;3473;42.604;23.496;2022-08-19T07:03:56;19680.50;;;-140.19;39.09
6869;BME280;3473;42.604;23.496;2022-08-19T07:05:29;19614.53;;;-140.19;38.16
6869;BME280;3473;42.604;23.496;2022-08-19T07:07:03;19676.63;;;-140.19;38.04
6869;BME280;3473;42.604;23.496;2022-08-19T07:08:38;19637.81;;;-140.19;38.01
6869;BME280;3473;42.604;23.496;2022-08-19T07:10:11;19630.03;;;-140.19;37.78
6869;BME280;3473;42.604;23.496;2022-08-19T07:11:44;19717.38;;;-140.19;37.55
6869;BME280;3473;42.604;23.496;2022-08-19T07:13:15;19711.56;;;-140.19;38.01
6869;BME280;3473;42.604;23.496;2022-08-19T07:14:47;19664.97;;;-140.19;37.85
6869;BME280;3473;42.604;23.496;2022-08-19T07:16:19;19758.13;;;-140.19;37.98
6869;BME280;3473;42.604;23.496;2022-08-19T07:17:51;19699.91;;;-140.19;38.01
6869;BME280;3473;42.604;23.496;2022-08-19T07:19:25;19649.47;;;-140.19;37.13
6869;BME280;3473;42.604;23.496;2022-08-19T07:21:04;19653.34;;;-140.19;37.40
6869;BME280;3473;42.604;23.496;2022-08-19T07:22:36;19732.91;;;-140.19;37.01
6869;BME280;3473;42.604;23.496;2022-08-19T07:24:08;19800.84;;;-140.19;37.07
6869;BME280;3473;42.604;23.496;2022-08-19T07:25:40;19750.38;;;-140.19;37.19
6869;BME280;3473;42.604;23.496;2022-08-19T07:27:13;19715.44;;;-140.19;36.82
6869;BME280;3473;42.604;23.496;2022-08-19T07:28:46;19804.72;;;-140.19;36.34
6869;BME280;3473;42.604;23.496;2022-08-19T07:30:18;19779.50;;;-140.19;35.67
6869;BME280;3473;42.604;23.496;2022-08-19T07:31:51;18611.31;;;-140.19;36.06
6869;BME280;3473;42.604;23.496;2022-08-19T07:33:23;19837.72;;;-140.19;35.43
6869;BME280;3473;42.604;23.496;2022-08-19T07:34:57;19820.25;;;-140.19;34.85
6869;BME280;3473;42.604;23.496;2022-08-19T07:36:33;19855.19;;;-140.19;34.57
6869;BME280;3473;42.604;23.496;2022-08-19T07:38:05;19814.44;;;-140.19;35.35
6869;BME280;3473;42.604;23.496;2022-08-19T07:39:38;19861.00;;;-140.19;34.70
6869;BME280;3473;42.604;23.496;2022-08-19T07:41:10;19884.31;;;-140.19;35.19
6869;BME280;3473;42.604;23.496;2022-08-19T07:42:42;19847.41;;;-140.19;35.33
6869;BME280;3473;42.604;23.496;2022-08-19T07:44:16;19868.78;;;-140.19;34.53
6869;BME280;3473;42.604;23.496;2022-08-19T07:45:48;19800.84;;;-140.19;35.05
6869;BME280;3473;42.604;23.496;2022-08-19T07:47:20;19861.00;;;-140.19;35.61
6869;BME280;3473;42.604;23.496;2022-08-19T07:48:52;19796.97;;;-140.19;34.90
6869;BME280;3473;42.604;23.496;2022-08-19T07:50:24;19884.31;;;-140.19;34.88
6869;BME280;3473;42.604;23.496;2022-08-19T07:52:00;19899.81;;;-140.19;33.65
6869;BME280;3473;42.604;23.496;2022-08-19T07:53:32;19882.34;;;-140.19;33.90
6869;BME280;3473;42.604;23.496;2022-08-19T07:55:05;19859.06;;;-140.19;33.77
6869;BME280;3473;42.604;23.496;2022-08-19T07:56:38;19901.75;;;-140.19;33.30
6869;BME280;3473;42.604;23.496;2022-08-19T07:58:11;19928.94;;;-140.19;33.52
6869;BME280;3473;42.604;23.496;2022-08-19T07:59:43;19915.34;;;-140.19;33.79
6869;BME280;3473;42.604;23.496;2022-08-19T08:01:19;19936.69;;;-140.19;32.98
6869;BME280;3473;42.604;23.496;2022-08-19T08:02:50;19940.59;;;-140.19;33.89
6869;BME280;3473;42.604;23.496;2022-08-19T08:04:22;19938.66;;;-140.19;33.42
6869;BME280;3473;42.604;23.496;2022-08-19T08:06:12;19994.94;;;-140.19;33.34
6869;BME280;3473;42.604;23.496;2022-08-19T08:08:05;19981.34;;;-140.19;33.20